createdAt,value
2024-03-07T00:00:15.278Z,1009.7
2024-03-07T00:01:37.253Z,1009.6
2024-03-07T00:05:04.308Z,1009.7
2024-03-07T00:07:14.261Z,1008.9
2024-03-07T00:08:38.311Z,1009.6
2024-03-07T00:10:00.321Z,1009.6
2024-03-07T00:11:22.382Z,1009.6
2024-03-07T00:12:44.255Z,1009.7
2024-03-07T00:14:06.307Z,1009.7
2024-03-07T00:15:28.354Z,1009.7
2024-03-07T00:16:50.279Z,1009.7
2024-03-07T00:18:12.771Z,1009.7
2024-03-07T00:19:34.438Z,1009.7
2024-03-07T00:20:56.320Z,1009.7
2024-03-07T00:21:37.274Z,1009.6
2024-03-07T00:22:59.269Z,1009.7
2024-03-07T00:25:09.280Z,1009.7
2024-03-07T00:26:39.942Z,1009.7
2024-03-07T00:27:27.881Z,1009.7
2024-03-07T00:28:08.479Z,1009.7
2024-03-07T00:31:39.534Z,1009.8
2024-03-07T00:33:53.169Z,1009.7
2024-03-07T00:35:15.361Z,1009.7
2024-03-07T00:36:39.285Z,1009.7
2024-03-07T00:38:03.786Z,1009.7
2024-03-07T00:39:27.524Z,1009.6
2024-03-07T00:40:56.167Z,1009.6
2024-03-07T00:42:19.321Z,1009.7
2024-03-07T00:43:48.214Z,1008.6
2024-03-07T00:45:11.296Z,1009.4
2024-03-07T00:46:38.257Z,1009.6
2024-03-07T00:48:42.286Z,1009.6
2024-03-07T00:50:09.559Z,1009.6
2024-03-07T00:51:32.419Z,1009.6
2024-03-07T00:52:58.336Z,1009.6
2024-03-07T00:54:23.382Z,1009.6
2024-03-07T00:55:48.309Z,1009.5
2024-03-07T00:57:57.281Z,1009.6
2024-03-07T00:59:22.123Z,1009.6
2024-03-07T01:00:49.787Z,1008.8
2024-03-07T01:02:12.378Z,1009.5
2024-03-07T01:03:40.279Z,1009.5
2024-03-07T01:05:03.397Z,1009.6
2024-03-07T01:06:28.385Z,1009.6
2024-03-07T01:07:52.323Z,1009.6
2024-03-07T01:09:14.510Z,1009.3
2024-03-07T01:10:36.291Z,1009.5
2024-03-07T01:11:18.396Z,1009.5
2024-03-07T01:12:00.348Z,1009.5
2024-03-07T01:13:26.303Z,1009.5
2024-03-07T01:14:48.743Z,1009.5
2024-03-07T01:16:10.319Z,1009.5
2024-03-07T01:18:57.344Z,1009.5
2024-03-07T01:21:07.185Z,1009.6
2024-03-07T01:22:35.075Z,1009.5
2024-03-07T01:23:59.722Z,1009.5
2024-03-07T01:25:23.322Z,1009.1
2024-03-07T01:26:48.161Z,1009.5
2024-03-07T01:28:13.896Z,1009.5
2024-03-07T01:29:35.354Z,1009.5
2024-03-07T01:30:57.316Z,1009.6
2024-03-07T01:31:38.571Z,1009.6
2024-03-07T01:33:00.791Z,1009.5
2024-03-07T01:33:44.233Z,1009.6
2024-03-07T01:35:11.208Z,1009.6
2024-03-07T01:36:34.344Z,1009.6
2024-03-07T01:37:56.366Z,1009.6
2024-03-07T01:39:18.396Z,1009.5
2024-03-07T01:40:42.829Z,1009.5
2024-03-07T01:42:05.357Z,1009.5
2024-03-07T01:43:31.341Z,1009.5
2024-03-07T01:44:53.359Z,1009.5
2024-03-07T01:46:15.343Z,1009.7
2024-03-07T01:47:39.328Z,1009.5
2024-03-07T01:49:06.031Z,1009.5
2024-03-07T01:50:32.360Z,1009.5
2024-03-07T01:51:57.624Z,1009.6
2024-03-07T01:53:20.301Z,1009.5
2024-03-07T01:54:45.559Z,1009.5
2024-03-07T01:56:09.268Z,1009.6
2024-03-07T01:58:13.259Z,1009.7
2024-03-07T02:00:18.811Z,1009.5
2024-03-07T02:01:40.268Z,1009.6
2024-03-07T02:03:02.377Z,1009.6
2024-03-07T02:04:25.271Z,1009.6
2024-03-07T02:05:53.160Z,1009.6
2024-03-07T02:07:59.332Z,1009.6
2024-03-07T02:09:21.289Z,1009.5
2024-03-07T02:10:43.505Z,1009.5
2024-03-07T02:12:05.292Z,1009.5
2024-03-07T02:14:15.439Z,1009.7
2024-03-07T02:15:40.911Z,1009.6
2024-03-07T02:17:06.044Z,1009.6
2024-03-07T02:18:30.345Z,1009.5
2024-03-07T02:19:54.304Z,1009.5
2024-03-07T02:21:18.552Z,1009.5
2024-03-07T02:23:22.724Z,1009.6
2024-03-07T02:24:45.386Z,1009.6
2024-03-07T02:26:55.048Z,1009.3
2024-03-07T02:28:19.267Z,1009.5
2024-03-07T02:29:44.085Z,1009.5
2024-03-07T02:31:07.563Z,1009.6
2024-03-07T02:32:30.325Z,1009.6
2024-03-07T02:36:39.415Z,1009.6
2024-03-07T02:38:02.345Z,1009.6
2024-03-07T02:39:25.602Z,1009.6
2024-03-07T02:40:48.280Z,1009.6
2024-03-07T02:42:10.316Z,1009.2
2024-03-07T02:43:33.388Z,1009.5
2024-03-07T02:44:57.343Z,1009.6
2024-03-07T02:47:02.323Z,1009.7
2024-03-07T02:49:05.307Z,1009.6
2024-03-07T02:50:27.389Z,1009.6
2024-03-07T02:51:53.822Z,1009.6
2024-03-07T02:53:15.304Z,1009.6
2024-03-07T02:54:39.324Z,1009.6
2024-03-07T02:56:42.330Z,1009.1
2024-03-07T02:58:50.300Z,1009.6
2024-03-07T03:00:12.335Z,1009.6
2024-03-07T03:01:35.390Z,1009.5
2024-03-07T03:02:58.375Z,1009.6
2024-03-07T03:04:22.290Z,1009.6
2024-03-07T03:05:45.336Z,1009.6
2024-03-07T03:07:48.295Z,1009.7
2024-03-07T03:09:54.589Z,1009.6
2024-03-07T03:11:20.945Z,1009.6
2024-03-07T03:12:46.297Z,1009.6
2024-03-07T03:14:08.285Z,1009.6
2024-03-07T03:15:30.729Z,1009.6
2024-03-07T03:16:52.408Z,1009.6
2024-03-07T03:18:14.584Z,1009.6
2024-03-07T03:18:55.260Z,1009.6
2024-03-07T03:19:36.299Z,1009.6
2024-03-07T03:21:00.399Z,1009.6
2024-03-07T03:22:27.369Z,1009.7
2024-03-07T03:23:51.376Z,1009.7
2024-03-07T03:25:20.357Z,1009.7
2024-03-07T03:26:43.677Z,1009.7
2024-03-07T03:28:09.132Z,1009.6
2024-03-07T03:29:30.316Z,1009.6
2024-03-07T03:30:52.312Z,1009.7
2024-03-07T03:32:14.324Z,1008.8
2024-03-07T03:33:36.416Z,1009.6
2024-03-07T03:34:58.325Z,1009.7
2024-03-07T03:36:20.301Z,1009.7
2024-03-07T03:37:47.077Z,1009.7
2024-03-07T03:39:11.287Z,1009.1
2024-03-07T03:41:17.625Z,1009.6
2024-03-07T03:42:39.350Z,1009.6
2024-03-07T03:44:03.526Z,1009.7
2024-03-07T03:45:26.307Z,1009.6
2024-03-07T03:47:35.350Z,1009.7
2024-03-07T03:49:00.329Z,1009.7
2024-03-07T03:50:26.273Z,1009.7
2024-03-07T03:51:50.344Z,1009.7
2024-03-07T03:53:16.332Z,1009.6
2024-03-07T03:54:41.805Z,1009.6
2024-03-07T03:56:06.353Z,1009.6
2024-03-07T03:57:28.312Z,1009.7
2024-03-07T03:58:11.476Z,1009.6
2024-03-07T04:00:59.324Z,1009.7
2024-03-07T04:03:05.379Z,1009.6
2024-03-07T04:04:30.298Z,1009.6
2024-03-07T04:05:53.517Z,1009.6
2024-03-07T04:07:20.364Z,1009.7
2024-03-07T04:08:47.205Z,1009.6
2024-03-07T04:10:10.336Z,1009.6
2024-03-07T04:11:36.518Z,1009.6
2024-03-07T04:13:00.984Z,1009.6
2024-03-07T04:15:06.593Z,1009.7
2024-03-07T04:16:33.674Z,1009.7
2024-03-07T04:17:55.373Z,1009.7
2024-03-07T04:19:18.327Z,1009.7
2024-03-07T04:20:40.695Z,1009.7
2024-03-07T04:22:02.344Z,1009.7
2024-03-07T04:23:25.363Z,1009.8
2024-03-07T04:24:47.330Z,1009.7
2024-03-07T04:26:14.455Z,1008.7
2024-03-07T04:27:38.869Z,1009.7
2024-03-07T04:29:00.329Z,1009.8
2024-03-07T04:30:22.327Z,1009.9
2024-03-07T04:31:48.432Z,1009.7
2024-03-07T04:35:19.943Z,1009.7
2024-03-07T04:37:23.452Z,1009.8
2024-03-07T04:38:45.427Z,1009.8
2024-03-07T04:40:07.602Z,1009.8
2024-03-07T04:41:34.390Z,1009
2024-03-07T04:42:56.348Z,1009.7
2024-03-07T04:46:24.385Z,1008.6
2024-03-07T04:47:48.063Z,1009.7
2024-03-07T04:49:55.342Z,1009.8
2024-03-07T04:51:20.429Z,1009.8
2024-03-07T04:52:42.600Z,1009.8
2024-03-07T04:54:07.359Z,1009.6
2024-03-07T04:55:32.387Z,1009.9
2024-03-07T04:56:55.426Z,1009.8
2024-03-07T04:58:58.420Z,1009.8
2024-03-07T05:01:03.477Z,1009.8
2024-03-07T05:02:28.417Z,1009.8
2024-03-07T05:03:53.298Z,1009.9
2024-03-07T05:05:16.648Z,1009.9
2024-03-07T05:06:39.338Z,1009.9
2024-03-07T05:08:01.364Z,1010
2024-03-07T05:09:23.357Z,1010
2024-03-07T05:10:45.434Z,1009.9
2024-03-07T05:12:07.454Z,1009.9
2024-03-07T05:13:32.373Z,1009.9
2024-03-07T05:14:56.374Z,1010
2024-03-07T05:16:22.444Z,1009.9
2024-03-07T05:17:45.510Z,1010
2024-03-07T05:19:49.356Z,1010
2024-03-07T05:21:14.374Z,1010
2024-03-07T05:22:36.350Z,1010
2024-03-07T05:24:03.368Z,1010
2024-03-07T05:27:28.408Z,1010
2024-03-07T05:29:34.519Z,1010
2024-03-07T05:30:56.352Z,1010
2024-03-07T05:32:18.403Z,1010.1
2024-03-07T05:33:40.669Z,1010.1
2024-03-07T05:35:43.424Z,1010.1
2024-03-07T05:37:50.497Z,1010.1
2024-03-07T05:39:15.046Z,1010.1
2024-03-07T05:39:58.276Z,1010.1
2024-03-07T05:40:40.398Z,1010.1
2024-03-07T05:42:02.374Z,1010.1
2024-03-07T05:43:24.436Z,1010.1
2024-03-07T05:44:47.466Z,1010.2
2024-03-07T05:46:13.720Z,1010.2
2024-03-07T05:48:16.730Z,1010.2
2024-03-07T05:50:20.489Z,1010.2
2024-03-07T05:51:44.906Z,1010.2
2024-03-07T05:53:07.405Z,1010.2
2024-03-07T05:54:29.607Z,1010.2
2024-03-07T05:55:51.741Z,1010.2
2024-03-07T05:58:04.413Z,1010.3
2024-03-07T05:59:27.400Z,1010.2
2024-03-07T06:00:52.636Z,1010.2
2024-03-07T06:02:23.515Z,1010.2
2024-03-07T06:03:49.369Z,1010.2
2024-03-07T06:05:14.936Z,1010.2
2024-03-07T06:06:36.468Z,1010.2
2024-03-07T06:08:01.119Z,1010.4
2024-03-07T06:10:04.390Z,1010.3
2024-03-07T06:11:26.543Z,1010.3
2024-03-07T06:14:51.538Z,1010.3
2024-03-07T06:16:16.413Z,1010.3
2024-03-07T06:18:21.477Z,1010
2024-03-07T06:19:43.412Z,1010.2
2024-03-07T06:21:05.460Z,1010.3
2024-03-07T06:22:27.393Z,1010.3
2024-03-07T06:23:49.415Z,1010.3
2024-03-07T06:25:12.452Z,1010.3
2024-03-07T06:26:35.645Z,1010.4
2024-03-07T06:27:59.580Z,1010.4
2024-03-07T06:29:24.452Z,1010.5
2024-03-07T06:30:51.553Z,1010.5
2024-03-07T06:32:17.482Z,1010.4
2024-03-07T06:33:41.720Z,1010.5
2024-03-07T06:35:05.397Z,1010.5
2024-03-07T06:36:30.409Z,1010.4
2024-03-07T06:38:35.446Z,1010.6
2024-03-07T06:39:58.416Z,1010.6
2024-03-07T06:42:05.642Z,1010.5
2024-03-07T06:43:28.428Z,1010.6
2024-03-07T06:44:53.153Z,1010.6
2024-03-07T06:46:15.396Z,1010.6
2024-03-07T06:47:37.709Z,1010.6
2024-03-07T06:49:01.474Z,1010.6
2024-03-07T06:50:27.301Z,1010.6
2024-03-07T06:51:46.399Z,1010.6
2024-03-07T06:53:09.832Z,1010.6
2024-03-07T06:54:32.417Z,1010.5
2024-03-07T06:55:55.047Z,1010.6
2024-03-07T06:57:16.639Z,1010.6
2024-03-07T06:58:38.458Z,1010.7
2024-03-07T07:00:00.481Z,1010.7
2024-03-07T07:01:24.511Z,1010.6
2024-03-07T07:02:48.526Z,1010.6
2024-03-07T07:04:12.431Z,1010.7
2024-03-07T07:05:39.490Z,1010.7
2024-03-07T07:07:02.443Z,1010.5
2024-03-07T07:08:26.486Z,1010.7
2024-03-07T07:09:48.502Z,1010.7
2024-03-07T07:11:10.452Z,1010.8
2024-03-07T07:12:36.407Z,1010.7
2024-03-07T07:14:02.627Z,1010.6
2024-03-07T07:15:25.452Z,1010.7
2024-03-07T07:16:47.429Z,1010.7
2024-03-07T07:18:10.912Z,1010.7
2024-03-07T07:19:34.638Z,1010.7
2024-03-07T07:20:57.568Z,1010.7
2024-03-07T07:24:30.429Z,1010.7
2024-03-07T07:25:53.718Z,1010.7
2024-03-07T07:27:15.445Z,1010.5
2024-03-07T07:27:57.667Z,1010.6
2024-03-07T07:29:19.421Z,1010.4
2024-03-07T07:30:43.720Z,1010.3
2024-03-07T07:32:47.421Z,1010.7
2024-03-07T07:34:10.436Z,1010.7
2024-03-07T07:35:32.508Z,1010.7
2024-03-07T07:36:57.486Z,1010.7
2024-03-07T07:40:26.432Z,1010.7
2024-03-07T07:41:51.785Z,1010.6
2024-03-07T07:43:19.646Z,1010.7
2024-03-07T07:44:00.232Z,1010.7
2024-03-07T07:45:24.477Z,1010.7
2024-03-07T07:46:49.434Z,1010.7
2024-03-07T07:48:15.503Z,1010.7
2024-03-07T07:49:40.016Z,1010.7
2024-03-07T07:51:07.773Z,1010.7
2024-03-07T07:52:30.436Z,1010.7
2024-03-07T07:53:56.324Z,1010.7
2024-03-07T07:55:21.217Z,1010.7
2024-03-07T07:57:28.448Z,1010.7
2024-03-07T07:58:51.767Z,1010.7
2024-03-07T08:00:13.474Z,1010.6
2024-03-07T08:01:35.460Z,1010.8
2024-03-07T08:03:00.691Z,1010.7
2024-03-07T08:05:10.202Z,1010.7
2024-03-07T08:06:31.490Z,1010.7
2024-03-07T08:07:53.547Z,1010.8
2024-03-07T08:09:18.219Z,1010.7
2024-03-07T08:09:59.443Z,1010.7
2024-03-07T08:11:24.551Z,1010.7
2024-03-07T08:12:48.723Z,1010.7
2024-03-07T08:14:10.484Z,1010.7
2024-03-07T08:16:16.463Z,1010.7
2024-03-07T08:17:38.463Z,1010.8
2024-03-07T08:19:00.525Z,1010.8
2024-03-07T08:22:30.637Z,1010.7
2024-03-07T08:23:56.515Z,1010.6
2024-03-07T08:25:21.050Z,1010.5
2024-03-07T08:26:42.705Z,1010.7
2024-03-07T08:27:23.512Z,1010.7
2024-03-07T08:28:45.576Z,1010.8
2024-03-07T08:29:27.533Z,1010.8
2024-03-07T08:30:49.497Z,1010.7
2024-03-07T08:31:30.484Z,1010.7
2024-03-07T08:32:11.494Z,1010.7
2024-03-07T08:33:33.595Z,1010.8
2024-03-07T08:34:59.603Z,1010.8
2024-03-07T08:37:04.457Z,1010.7
2024-03-07T08:38:26.468Z,1010.7
2024-03-07T08:39:48.504Z,1010.8
2024-03-07T08:41:12.558Z,1010.7
2024-03-07T08:43:17.561Z,1010.8
2024-03-07T08:44:41.723Z,1010.7
2024-03-07T08:46:48.037Z,1010.8
2024-03-07T08:48:10.141Z,1010.7
2024-03-07T08:49:31.501Z,1010.8
2024-03-07T08:50:53.499Z,1010.8
2024-03-07T08:52:21.461Z,1010.7
2024-03-07T08:54:28.511Z,1010.7
2024-03-07T08:55:50.717Z,1010.8
2024-03-07T08:57:12.500Z,1010.8
2024-03-07T08:59:56.612Z,1010.7
2024-03-07T09:00:38.693Z,1010.7
2024-03-07T09:01:59.488Z,1010.7
2024-03-07T09:02:41.780Z,1010.7
2024-03-07T09:04:05.848Z,1010.8
2024-03-07T09:05:28.591Z,1010.7
2024-03-07T09:06:52.788Z,1010.7
2024-03-07T09:08:59.485Z,1010.4
2024-03-07T09:10:23.600Z,1010.7
2024-03-07T09:11:46.408Z,1010.7
2024-03-07T09:13:08.469Z,1010.7
2024-03-07T09:14:34.975Z,1010.7
2024-03-07T09:16:40.753Z,1010.7
2024-03-07T09:18:02.936Z,1010.7
2024-03-07T09:19:26.473Z,1010.7
2024-03-07T09:22:51.564Z,1010.6
2024-03-07T09:24:13.817Z,1010.8
2024-03-07T09:24:55.534Z,1010.7
2024-03-07T09:26:17.585Z,1010.7
2024-03-07T09:27:39.488Z,1010.7
2024-03-07T09:28:20.487Z,1010.7
2024-03-07T09:29:01.487Z,1010.7
2024-03-07T09:31:12.507Z,1010.7
2024-03-07T09:32:34.545Z,1010.7
2024-03-07T09:34:01.664Z,1010.7
2024-03-07T09:35:23.563Z,1010.8
2024-03-07T09:38:48.619Z,1010.8
2024-03-07T09:40:53.509Z,1010.8
2024-03-07T09:42:15.487Z,1010.8
2024-03-07T09:43:37.499Z,1010.8
2024-03-07T09:44:59.878Z,1010.8
2024-03-07T09:48:32.565Z,1010.8
2024-03-07T09:49:55.493Z,1010.8
2024-03-07T09:51:58.610Z,1010.9
2024-03-07T09:53:20.495Z,1010.9
2024-03-07T09:54:46.675Z,1010.9
2024-03-07T09:56:54.600Z,1010.9
2024-03-07T09:58:20.155Z,1010.9
2024-03-07T09:59:45.432Z,1010.9
2024-03-07T10:01:10.531Z,1010.9
2024-03-07T10:02:35.110Z,1010.9
2024-03-07T10:03:58.575Z,1010.9
2024-03-07T10:05:20.518Z,1010.8
2024-03-07T10:06:44.563Z,1010
2024-03-07T10:10:15.534Z,1010.9
2024-03-07T10:12:23.575Z,1011
2024-03-07T10:13:45.511Z,1010.9
2024-03-07T10:15:08.800Z,1010.9
2024-03-07T10:16:31.511Z,1009.9
2024-03-07T10:17:54.806Z,1010.9
2024-03-07T10:19:19.710Z,1010.9
2024-03-07T10:21:27.501Z,1011
2024-03-07T10:22:50.545Z,1010.9
2024-03-07T10:24:12.642Z,1011
2024-03-07T10:25:37.580Z,1010.9
2024-03-07T10:27:41.562Z,1010.9
2024-03-07T10:29:03.569Z,1011
2024-03-07T10:31:07.566Z,1010.9
2024-03-07T10:32:29.734Z,1010.9
2024-03-07T10:33:52.921Z,1009.6
2024-03-07T10:36:03.662Z,1010.1
2024-03-07T10:37:25.814Z,1010.8
2024-03-07T10:38:48.661Z,1010.9
2024-03-07T10:40:10.590Z,1010.9
2024-03-07T10:41:34.707Z,1010.5
2024-03-07T10:42:59.089Z,1010.8
2024-03-07T10:44:20.584Z,1010.8
2024-03-07T10:45:43.679Z,1010.7
2024-03-07T10:47:05.663Z,1010.8
2024-03-07T10:48:27.966Z,1010.7
2024-03-07T10:49:49.869Z,1010.7
2024-03-07T10:51:12.724Z,1010.7
2024-03-07T10:51:53.848Z,1010.7
2024-03-07T10:52:38.069Z,1010.7
2024-03-07T10:54:02.491Z,1010.7
2024-03-07T10:56:07.596Z,1010.7
2024-03-07T10:58:14.347Z,1010.6
2024-03-07T10:59:36.866Z,1010.7
2024-03-07T11:00:58.640Z,1010.7
2024-03-07T11:02:21.636Z,1010.7
2024-03-07T11:03:43.607Z,1010.7
2024-03-07T11:07:16.796Z,1010.7
2024-03-07T11:09:19.577Z,1010.7
2024-03-07T11:10:45.383Z,1010.7
2024-03-07T11:12:10.276Z,1010.7
2024-03-07T11:13:32.711Z,1009.9
2024-03-07T11:14:58.697Z,1010.6
2024-03-07T11:16:21.582Z,1009.8
2024-03-07T11:19:52.748Z,1010.6
2024-03-07T11:21:19.593Z,1010.6
2024-03-07T11:22:00.804Z,1010
2024-03-07T11:22:44.130Z,1010.5
2024-03-07T11:24:09.284Z,1010.6
2024-03-07T11:27:34.612Z,1010.7
2024-03-07T11:28:56.590Z,1010.7
2024-03-07T11:30:59.600Z,1010.6
2024-03-07T11:32:22.555Z,1010.6
2024-03-07T11:34:25.610Z,1010.6
2024-03-07T11:35:47.676Z,1010.6
2024-03-07T11:36:28.605Z,1010.6
2024-03-07T11:37:09.590Z,1010.6
2024-03-07T11:39:12.593Z,1010.5
2024-03-07T11:40:34.591Z,1010.5
2024-03-07T11:43:59.704Z,1010.1
2024-03-07T11:46:02.603Z,1010.4
2024-03-07T11:47:24.651Z,1010.4
2024-03-07T11:48:46.757Z,1010.4
2024-03-07T11:50:49.684Z,1010.3
2024-03-07T11:52:11.622Z,1010.3
2024-03-07T11:54:15.659Z,1010.1
2024-03-07T11:55:38.613Z,1010.2
2024-03-07T11:57:00.826Z,1010.3
2024-03-07T11:59:09.240Z,1010.2
2024-03-07T12:00:29.720Z,1010.3
2024-03-07T12:01:55.904Z,1010.4
2024-03-07T12:03:20.695Z,1010.3
2024-03-07T12:05:28.735Z,1010.3
2024-03-07T12:06:50.665Z,1010.2
2024-03-07T12:08:12.643Z,1010.3
2024-03-07T12:09:38.318Z,1010.3
2024-03-07T12:11:00.741Z,1010.2
2024-03-07T12:12:26.679Z,1010.2
2024-03-07T12:14:30.636Z,1010.2
2024-03-07T12:15:54.890Z,1010.2
2024-03-07T12:17:17.025Z,1010.2
2024-03-07T12:19:22.737Z,1010.2
2024-03-07T12:20:44.654Z,1010.1
2024-03-07T12:22:09.668Z,1010.1
2024-03-07T12:25:38.644Z,1010.1
2024-03-07T12:27:03.675Z,1010.1
2024-03-07T12:28:30.882Z,1010.1
2024-03-07T12:29:54.672Z,1010.1
2024-03-07T12:32:02.617Z,1010.1
2024-03-07T12:33:28.021Z,1010
2024-03-07T12:34:50.743Z,1010
2024-03-07T12:36:12.776Z,1010
2024-03-07T12:37:35.695Z,1010
2024-03-07T12:38:59.749Z,1010
2024-03-07T12:41:12.822Z,1010
2024-03-07T12:42:35.944Z,1010
2024-03-07T12:44:01.633Z,1010
2024-03-07T12:45:24.635Z,1010
2024-03-07T12:46:50.352Z,1010.1
2024-03-07T12:48:15.884Z,1010.1
2024-03-07T12:50:19.671Z,1010.1
2024-03-07T12:51:44.624Z,1010
2024-03-07T12:53:06.650Z,1010.1
2024-03-07T12:54:28.637Z,1010.2
2024-03-07T12:56:32.768Z,1010.1
2024-03-07T12:57:55.900Z,1010.1
2024-03-07T13:01:23.655Z,1010.2
2024-03-07T13:02:49.876Z,1010.2
2024-03-07T13:04:16.650Z,1010.2
2024-03-07T13:05:39.891Z,1010.1
2024-03-07T13:07:01.658Z,1010.2
2024-03-07T13:09:05.808Z,1010.1
2024-03-07T13:11:08.758Z,1010.1
2024-03-07T13:12:34.419Z,1010.1
2024-03-07T13:13:59.653Z,1010.3
2024-03-07T13:15:24.913Z,1010.2
2024-03-07T13:16:49.397Z,1010.1
2024-03-07T13:18:13.782Z,1010.2
2024-03-07T13:19:35.678Z,1010.1
2024-03-07T13:21:39.651Z,1010.2
2024-03-07T13:23:42.744Z,1010.2
2024-03-07T13:25:04.641Z,1010.2
2024-03-07T13:26:27.899Z,1010.2
2024-03-07T13:27:49.667Z,1010.2
2024-03-07T13:29:12.667Z,1010.2
2024-03-07T13:30:35.657Z,1010.3
2024-03-07T13:32:01.484Z,1010.2
2024-03-07T13:32:46.110Z,1010.2
2024-03-07T13:33:24.886Z,1010.2
2024-03-07T13:34:49.660Z,1010.2
2024-03-07T13:36:12.693Z,1010.2
2024-03-07T13:37:41.550Z,1010.2
2024-03-07T13:39:08.918Z,1010.2
2024-03-07T13:40:28.681Z,1010.2
2024-03-07T13:41:51.734Z,1010.2
2024-03-07T13:43:14.688Z,1010.1
2024-03-07T13:44:36.661Z,1010.2
2024-03-07T13:45:58.660Z,1010.2
2024-03-07T13:47:21.802Z,1010.2
2024-03-07T13:48:43.818Z,1009.8
2024-03-07T13:51:27.801Z,1010.1
2024-03-07T13:52:49.679Z,1010.2
2024-03-07T13:54:11.738Z,1010.1
2024-03-07T13:55:34.709Z,1010.1
2024-03-07T13:56:59.950Z,1010.1
2024-03-07T13:58:21.688Z,1010.1
2024-03-07T13:59:43.686Z,1010
2024-03-07T14:01:05.730Z,1010
2024-03-07T14:02:28.694Z,1010.1
2024-03-07T14:03:51.664Z,1010.1
2024-03-07T14:05:15.681Z,1010
2024-03-07T14:06:41.762Z,1010.1
2024-03-07T14:08:03.714Z,1010.1
2024-03-07T14:09:25.687Z,1010.1
2024-03-07T14:10:48.826Z,1010.1
2024-03-07T14:12:10.778Z,1010.1
2024-03-07T14:13:32.878Z,1010.1
2024-03-07T14:14:56.712Z,1009.8
2024-03-07T14:16:18.690Z,1009.9
2024-03-07T14:17:40.874Z,1010.1
2024-03-07T14:19:02.726Z,1010.1
2024-03-07T14:20:29.842Z,1010
2024-03-07T14:21:52.385Z,1010
2024-03-07T14:23:15.734Z,1010
2024-03-07T14:24:37.699Z,1010.1
2024-03-07T14:26:00.355Z,1010
2024-03-07T14:27:21.692Z,1010
2024-03-07T14:28:43.829Z,1010.1
2024-03-07T14:30:05.775Z,1010
2024-03-07T14:31:27.720Z,1010
2024-03-07T14:32:49.738Z,1010
2024-03-07T14:34:14.682Z,1010
2024-03-07T14:35:39.614Z,1010
2024-03-07T14:37:02.736Z,1010
2024-03-07T14:38:25.052Z,1010
2024-03-07T14:41:51.730Z,1010
2024-03-07T14:43:56.916Z,1010
2024-03-07T14:45:19.820Z,1010
2024-03-07T14:46:42.688Z,1010.1
2024-03-07T14:48:07.743Z,1010
2024-03-07T14:50:12.750Z,1009.9
2024-03-07T14:51:38.853Z,1009.9
2024-03-07T14:53:00.247Z,1009.9
2024-03-07T14:54:28.532Z,1009.9
2024-03-07T14:55:50.772Z,1009.9
2024-03-07T14:57:58.382Z,1009.9
2024-03-07T14:59:20.785Z,1009.9
2024-03-07T15:00:49.379Z,1009.9
2024-03-07T15:02:04.813Z,1009.9
2024-03-07T15:04:12.563Z,1009.8
2024-03-07T15:05:35.697Z,1009.9
2024-03-07T15:06:57.717Z,1009.8
2024-03-07T15:08:19.693Z,1009.8
2024-03-07T15:09:41.752Z,1009.8
2024-03-07T15:11:04.804Z,1009.8
2024-03-07T15:12:27.833Z,1009.8
2024-03-07T15:13:49.753Z,1009.8
2024-03-07T15:14:33.599Z,1009.8
2024-03-07T15:15:13.958Z,1009.8
2024-03-07T15:16:37.183Z,1009.8
2024-03-07T15:17:59.814Z,1009.1
2024-03-07T15:19:21.802Z,1009.7
2024-03-07T15:20:43.754Z,1009.8
2024-03-07T15:22:08.912Z,1009.8
2024-03-07T15:23:33.742Z,1009.9
2024-03-07T15:25:02.782Z,1009.8
2024-03-07T15:26:27.851Z,1009.8
2024-03-07T15:27:50.949Z,1009.8
2024-03-07T15:29:16.405Z,1009.8
2024-03-07T15:30:38.722Z,1009.8
2024-03-07T15:32:04.045Z,1009.8
2024-03-07T15:33:25.966Z,1009.8
2024-03-07T15:35:29.767Z,1009.8
2024-03-07T15:37:38.420Z,1009.9
2024-03-07T15:39:00.812Z,1009.8
2024-03-07T15:40:26.379Z,1009.8
2024-03-07T15:41:51.663Z,1009.9
2024-03-07T15:43:18.812Z,1009.8
2024-03-07T15:44:40.754Z,1009.9
2024-03-07T15:46:02.716Z,1009.9
2024-03-07T15:47:24.742Z,1009.8
2024-03-07T15:48:47.138Z,1009.8
2024-03-07T15:50:08.744Z,1009.8
2024-03-07T15:51:30.727Z,1009.8
2024-03-07T15:52:53.790Z,1009.8
2024-03-07T15:54:15.812Z,1009.8
2024-03-07T15:55:37.752Z,1009.8
2024-03-07T15:57:01.053Z,1009.8
2024-03-07T15:58:23.731Z,1009.8
2024-03-07T15:59:45.939Z,1009.8
2024-03-07T16:01:07.848Z,1009.8
2024-03-07T16:02:30.027Z,1009.8
2024-03-07T16:03:52.866Z,1009.8
2024-03-07T16:05:18.283Z,1009.9
2024-03-07T16:06:39.729Z,1009.8
2024-03-07T16:08:01.986Z,1009.8
2024-03-07T16:09:24.776Z,1009.8
2024-03-07T16:10:46.818Z,1009.9
2024-03-07T16:12:08.768Z,1009.8
2024-03-07T16:13:33.645Z,1009.8
2024-03-07T16:15:41.176Z,1009.9
2024-03-07T16:17:42.790Z,1009.9
2024-03-07T16:19:05.988Z,1009.7
2024-03-07T16:20:28.791Z,1009.8
2024-03-07T16:21:09.882Z,1009.9
2024-03-07T16:21:50.776Z,1009.8
2024-03-07T16:23:12.778Z,1009.8
2024-03-07T16:24:35.732Z,1009.8
2024-03-07T16:25:57.976Z,1009.8
2024-03-07T16:27:20.761Z,1009.8
2024-03-07T16:28:42.791Z,1009.8
2024-03-07T16:30:04.996Z,1009.8
2024-03-07T16:31:27.784Z,1009.7
2024-03-07T16:33:35.255Z,1009.8
2024-03-07T16:35:01.111Z,1009.9
2024-03-07T16:37:08.012Z,1009.8
2024-03-07T16:38:29.887Z,1009.6
2024-03-07T16:39:53.754Z,1009.9
2024-03-07T16:41:18.425Z,1009.9
2024-03-07T16:42:39.789Z,1009.9
2024-03-07T16:44:01.768Z,1009.9
2024-03-07T16:45:23.965Z,1009.9
2024-03-07T16:46:46.745Z,1009.8
2024-03-07T16:48:11.378Z,1009.9
2024-03-07T16:49:32.764Z,1009.9
2024-03-07T16:50:56.826Z,1009.9
2024-03-07T16:52:18.778Z,1009.9
2024-03-07T16:53:40.785Z,1009.9
2024-03-07T16:55:02.766Z,1009.9
2024-03-07T16:56:27.565Z,1009.8
2024-03-07T16:57:49.746Z,1009.9
2024-03-07T16:59:11.826Z,1009.9
2024-03-07T17:00:35.930Z,1009.7
2024-03-07T17:01:59.757Z,1009.5
2024-03-07T17:03:23.199Z,1009.9
2024-03-07T17:05:26.066Z,1009.8
2024-03-07T17:07:30.968Z,1009.9
2024-03-07T17:08:50.821Z,1010
2024-03-07T17:10:15.454Z,1009.8
2024-03-07T17:11:41.915Z,1009.9
2024-03-07T17:13:51.278Z,1010
2024-03-07T17:15:13.850Z,1010.1
2024-03-07T17:16:38.038Z,1009.9
2024-03-07T17:18:03.066Z,1009.9
2024-03-07T17:19:28.678Z,1010
2024-03-07T17:20:55.971Z,1010
2024-03-07T17:22:20.767Z,1010
2024-03-07T17:23:47.096Z,1010
2024-03-07T17:25:09.844Z,1010
2024-03-07T17:27:12.798Z,1010
2024-03-07T17:28:36.906Z,1010
2024-03-07T17:30:43.034Z,1010
2024-03-07T17:32:04.765Z,1010
2024-03-07T17:33:27.923Z,1010
2024-03-07T17:34:51.764Z,1009.9
2024-03-07T17:36:58.841Z,1010
2024-03-07T17:38:21.868Z,1010
2024-03-07T17:39:46.824Z,1010
2024-03-07T17:41:14.064Z,1010
2024-03-07T17:42:36.803Z,1010
2024-03-07T17:43:20.654Z,1010
2024-03-07T17:44:45.584Z,1010
2024-03-07T17:46:08.801Z,1010
2024-03-07T17:47:30.785Z,1010
2024-03-07T17:48:52.863Z,1009.9
2024-03-07T17:50:18.328Z,1010
2024-03-07T17:52:24.776Z,1010
2024-03-07T17:53:47.855Z,1010
2024-03-07T17:55:14.404Z,1009.9
2024-03-07T17:56:35.859Z,1010
2024-03-07T17:58:43.922Z,1010
2024-03-07T18:00:09.905Z,1010.1
2024-03-07T18:01:36.959Z,1010
2024-03-07T18:03:08.326Z,1010
2024-03-07T18:04:31.047Z,1010
2024-03-07T18:06:02.574Z,1010
2024-03-07T18:07:25.814Z,1009.9
2024-03-07T18:08:49.141Z,1010
2024-03-07T18:10:13.063Z,1010
2024-03-07T18:11:36.909Z,1010
2024-03-07T18:13:01.872Z,1010
2024-03-07T18:15:13.888Z,1010.1
2024-03-07T18:16:35.008Z,1010.1
2024-03-07T18:17:59.882Z,1010.1
2024-03-07T18:19:21.778Z,1010.1
2024-03-07T18:20:45.448Z,1010.1
2024-03-07T18:22:06.814Z,1010.1
2024-03-07T18:24:13.812Z,1010.1
2024-03-07T18:26:27.939Z,1010.1
2024-03-07T18:27:49.804Z,1010.1
2024-03-07T18:29:12.823Z,1010
2024-03-07T18:30:35.054Z,1010.1
2024-03-07T18:31:58.888Z,1010.1
2024-03-07T18:33:21.870Z,1010
2024-03-07T18:34:46.275Z,1010.1
2024-03-07T18:35:30.738Z,1010.1
2024-03-07T18:36:11.811Z,1010.1
2024-03-07T18:37:36.660Z,1010.1
2024-03-07T18:38:20.387Z,1010.1
2024-03-07T18:39:45.783Z,1010.1
2024-03-07T18:41:08.824Z,1010
2024-03-07T18:42:30.815Z,1010.1
2024-03-07T18:43:52.818Z,1010.1
2024-03-07T18:45:17.838Z,1010.1
2024-03-07T18:46:39.797Z,1010.1
2024-03-07T18:48:04.911Z,1010.1
2024-03-07T18:49:27.909Z,1010.1
2024-03-07T18:50:50.288Z,1010.1
2024-03-07T18:52:15.957Z,1010.1
2024-03-07T18:53:41.804Z,1010.1
2024-03-07T18:55:04.814Z,1010.1
2024-03-07T18:57:07.832Z,1010.1
2024-03-07T18:58:29.801Z,1010.1
2024-03-07T19:01:55.874Z,1010.2
2024-03-07T19:03:18.822Z,1010.1